TAM1878 SBCG-SBCY
Flight info
| Callsign | TAM1878 |
|---|---|
| Flight time | 0h 52m |
| Altitude | 32000 |
| Route | KOXAL UZ63 TOSAR/N0430F310 |
| Aircraft | A320/M-SDE3FGHIRWY/LB1 |
Departure
| Time | 2026-05-07 16:34 |
|---|---|
| Airport | Campo Grande Airport (SBCG) |
Arrival
| Time | 2026-05-07 17:27 |
|---|---|
| Airport | Várzea Grande–Marechal Rondon International Airport (SBCY) |
| Time | Latitude | Longitude | Altitude | Speed | Heading |
|---|---|---|---|---|---|
| 2026-05-07 15:56 | -20.45791 | -54.66856 | 1839 ft | 0 kts | 353° |
| 2026-05-07 16:20 | -20.45806 | -54.66853 | 1839 ft | 2 kts | 336° |
| 2026-05-07 16:20 | -20.45820 | -54.66843 | 1839 ft | 2 kts | 316° |
| 2026-05-07 16:20 | -20.45833 | -54.66832 | 1839 ft | 2 kts | 336° |
| 2026-05-07 16:21 | -20.45839 | -54.66824 | 1839 ft | 0 kts | 258° |
| 2026-05-07 16:23 | -20.45843 | -54.66867 | 1839 ft | 17 kts | 265° |
| 2026-05-07 16:23 | -20.45853 | -54.66975 | 1839 ft | 10 kts | 264° |
| 2026-05-07 16:24 | -20.45856 | -54.67009 | 1839 ft | 0 kts | 264° |
| 2026-05-07 16:24 | -20.45856 | -54.67011 | 1839 ft | 3 kts | 264° |
| 2026-05-07 16:24 | -20.45866 | -54.67115 | 1839 ft | 18 kts | 260° |
| 2026-05-07 16:25 | -20.45929 | -54.67140 | 1839 ft | 14 kts | 175° |
| 2026-05-07 16:25 | -20.46088 | -54.67123 | 1839 ft | 32 kts | 174° |
| 2026-05-07 16:25 | -20.46277 | -54.67101 | 1839 ft | 25 kts | 174° |
| 2026-05-07 16:25 | -20.46388 | -54.67093 | 1839 ft | 14 kts | 188° |
| 2026-05-07 16:26 | -20.46467 | -54.67140 | 1839 ft | 12 kts | 221° |
| 2026-05-07 16:26 | -20.46536 | -54.67207 | 1839 ft | 19 kts | 223° |
| 2026-05-07 16:26 | -20.46661 | -54.67327 | 1839 ft | 25 kts | 222° |
| 2026-05-07 16:26 | -20.46786 | -54.67448 | 1839 ft | 23 kts | 221° |
| 2026-05-07 16:27 | -20.46900 | -54.67558 | 1839 ft | 21 kts | 222° |
| 2026-05-07 16:27 | -20.47003 | -54.67658 | 1839 ft | 19 kts | 221° |
| 2026-05-07 16:27 | -20.47097 | -54.67749 | 1839 ft | 17 kts | 223° |
| 2026-05-07 16:27 | -20.47182 | -54.67831 | 1839 ft | 15 kts | 222° |
| 2026-05-07 16:28 | -20.47257 | -54.67904 | 1839 ft | 14 kts | 222° |
| 2026-05-07 16:28 | -20.47322 | -54.67967 | 1839 ft | 13 kts | 223° |
| 2026-05-07 16:28 | -20.47422 | -54.68064 | 1839 ft | 27 kts | 222° |
| 2026-05-07 16:28 | -20.47568 | -54.68205 | 1839 ft | 27 kts | 222° |
| 2026-05-07 16:29 | -20.47697 | -54.68330 | 1839 ft | 14 kts | 222° |
| 2026-05-07 16:29 | -20.47758 | -54.68345 | 1839 ft | 0 kts | 151° |
| 2026-05-07 16:29 | -20.47759 | -54.68342 | 1839 ft | 1 kts | 133° |
| 2026-05-07 16:29 | -20.47762 | -54.68339 | 1839 ft | 1 kts | 131° |
| 2026-05-07 16:30 | -20.47775 | -54.68323 | 1839 ft | 5 kts | 131° |
| 2026-05-07 16:30 | -20.47796 | -54.68299 | 1839 ft | 2 kts | 131° |
| 2026-05-07 16:31 | -20.47819 | -54.68270 | 1839 ft | 12 kts | 131° |
| 2026-05-07 16:31 | -20.47822 | -54.68187 | 1840 ft | 12 kts | 49° |
| 2026-05-07 16:31 | -20.47808 | -54.68175 | 1840 ft | 0 kts | 40° |
| 2026-05-07 16:33 | -20.47807 | -54.68173 | 1840 ft | 2 kts | 40° |
| 2026-05-07 16:34 | -20.47703 | -54.68076 | 1840 ft | 52 kts | 42° |
| 2026-05-07 16:34 | -20.47260 | -54.67648 | 1837 ft | 117 kts | 41° |
| 2026-05-07 16:34 | -20.46544 | -54.66946 | 2003 ft | 152 kts | 37° |
| 2026-05-07 16:34 | -20.45770 | -54.66179 | 2737 ft | 153 kts | 35° |
| 2026-05-07 16:35 | -20.44961 | -54.65415 | 3321 ft | 160 kts | 37° |
| 2026-05-07 16:35 | -20.44067 | -54.64575 | 3648 ft | 182 kts | 36° |
| 2026-05-07 16:35 | -20.43055 | -54.63623 | 3900 ft | 206 kts | 36° |
| 2026-05-07 16:35 | -20.41915 | -54.62550 | 4273 ft | 231 kts | 37° |
| 2026-05-07 16:36 | -20.40659 | -54.61358 | 4770 ft | 251 kts | 38° |
| 2026-05-07 16:36 | -20.39269 | -54.60209 | 5567 ft | 251 kts | 22° |
| 2026-05-07 16:36 | -20.37592 | -54.59978 | 6392 ft | 247 kts | 348° |
| 2026-05-07 16:36 | -20.36061 | -54.60840 | 6796 ft | 257 kts | 317° |
| 2026-05-07 16:37 | -20.35301 | -54.62604 | 7445 ft | 277 kts | 282° |
| 2026-05-07 16:37 | -20.35319 | -54.64696 | 8224 ft | 284 kts | 275° |
| 2026-05-07 16:37 | -20.34889 | -54.66690 | 9008 ft | 275 kts | 301° |
| 2026-05-07 16:37 | -20.33776 | -54.68349 | 9769 ft | 276 kts | 314° |
| 2026-05-07 16:38 | -20.32406 | -54.69821 | 10264 ft | 288 kts | 318° |
| 2026-05-07 16:38 | -20.30885 | -54.71321 | 10484 ft | 308 kts | 319° |
| 2026-05-07 16:38 | -20.29290 | -54.72917 | 10952 ft | 318 kts | 317° |
| 2026-05-07 16:38 | -20.27720 | -54.74571 | 11542 ft | 323 kts | 315° |
| 2026-05-07 16:39 | -20.26276 | -54.76426 | 12134 ft | 329 kts | 309° |
| 2026-05-07 16:39 | -20.24882 | -54.78375 | 12747 ft | 333 kts | 308° |
| 2026-05-07 16:39 | -20.23489 | -54.80361 | 13380 ft | 336 kts | 308° |
| 2026-05-07 16:39 | -20.22096 | -54.82367 | 13928 ft | 340 kts | 307° |
| 2026-05-07 16:40 | -20.20623 | -54.84350 | 14443 ft | 342 kts | 314° |
| 2026-05-07 16:40 | -20.18797 | -54.85984 | 14959 ft | 345 kts | 327° |
| 2026-05-07 16:40 | -20.16644 | -54.87139 | 15439 ft | 350 kts | 340° |
| 2026-05-07 16:40 | -20.14296 | -54.87906 | 15911 ft | 354 kts | 342° |
| 2026-05-07 16:41 | -20.12128 | -54.88604 | 16396 ft | 357 kts | 342° |
| 2026-05-07 16:41 | -20.12046 | -54.88630 | 16422 ft | 357 kts | 342° |
| 2026-05-07 16:41 | -20.09652 | -54.89408 | 16861 ft | 363 kts | 342° |
| 2026-05-07 16:41 | -20.07239 | -54.90194 | 17453 ft | 363 kts | 342° |
| 2026-05-07 16:42 | -20.04806 | -54.90985 | 17939 ft | 367 kts | 341° |
| 2026-05-07 16:42 | -20.02369 | -54.91778 | 18481 ft | 368 kts | 342° |
| 2026-05-07 16:42 | -19.99906 | -54.92580 | 18878 ft | 372 kts | 341° |
| 2026-05-07 16:42 | -19.97420 | -54.93392 | 19294 ft | 375 kts | 341° |
| 2026-05-07 16:43 | -19.94920 | -54.94208 | 19744 ft | 378 kts | 341° |
| 2026-05-07 16:43 | -19.92403 | -54.95028 | 20206 ft | 379 kts | 341° |
| 2026-05-07 16:43 | -19.89874 | -54.95850 | 20689 ft | 381 kts | 341° |
| 2026-05-07 16:43 | -19.87336 | -54.96666 | 21154 ft | 383 kts | 343° |
| 2026-05-07 16:44 | -19.84701 | -54.97185 | 21535 ft | 388 kts | 353° |
| 2026-05-07 16:44 | -19.81994 | -54.97436 | 21901 ft | 393 kts | 353° |
| 2026-05-07 16:44 | -19.79267 | -54.97690 | 22345 ft | 395 kts | 352° |
| 2026-05-07 16:44 | -19.76529 | -54.97946 | 22808 ft | 396 kts | 352° |
| 2026-05-07 16:45 | -19.73775 | -54.98207 | 23193 ft | 399 kts | 353° |
| 2026-05-07 16:45 | -19.71001 | -54.98472 | 23532 ft | 403 kts | 352° |
| 2026-05-07 16:45 | -19.68238 | -54.98734 | 23879 ft | 404 kts | 352° |
| 2026-05-07 16:45 | -19.65429 | -54.98998 | 24232 ft | 406 kts | 352° |
| 2026-05-07 16:46 | -19.62605 | -54.99263 | 24534 ft | 409 kts | 352° |
| 2026-05-07 16:46 | -19.59752 | -54.99531 | 24826 ft | 413 kts | 352° |
| 2026-05-07 16:46 | -19.56878 | -54.99801 | 25144 ft | 416 kts | 352° |
| 2026-05-07 16:46 | -19.53991 | -55.00074 | 25475 ft | 418 kts | 352° |
| 2026-05-07 16:47 | -19.51084 | -55.00349 | 25743 ft | 422 kts | 352° |
| 2026-05-07 16:47 | -19.48141 | -55.00629 | 26034 ft | 425 kts | 352° |
| 2026-05-07 16:47 | -19.45183 | -55.00908 | 26354 ft | 428 kts | 352° |
| 2026-05-07 16:47 | -19.42212 | -55.01187 | 26698 ft | 430 kts | 352° |
| 2026-05-07 16:48 | -19.39226 | -55.01469 | 27008 ft | 432 kts | 352° |
| 2026-05-07 16:48 | -19.36227 | -55.01753 | 27311 ft | 434 kts | 352° |
| 2026-05-07 16:48 | -19.33231 | -55.02139 | 27607 ft | 434 kts | 345° |
| 2026-05-07 16:48 | -19.30301 | -55.02934 | 27911 ft | 434 kts | 341° |
| 2026-05-07 16:49 | -19.27383 | -55.03780 | 28203 ft | 437 kts | 341° |
| 2026-05-07 16:49 | -19.24440 | -55.04631 | 28481 ft | 440 kts | 341° |
| 2026-05-07 16:49 | -19.21506 | -55.05474 | 28755 ft | 443 kts | 341° |
| 2026-05-07 16:49 | -19.18525 | -55.06328 | 29059 ft | 445 kts | 341° |
| 2026-05-07 16:50 | -19.15526 | -55.07185 | 29353 ft | 448 kts | 341° |
| 2026-05-07 16:50 | -19.12505 | -55.08048 | 29639 ft | 450 kts | 341° |
| 2026-05-07 16:50 | -19.09477 | -55.08913 | 29926 ft | 452 kts | 341° |
| 2026-05-07 16:50 | -19.06436 | -55.09787 | 30170 ft | 454 kts | 341° |
| 2026-05-07 16:51 | -19.03382 | -55.10664 | 30411 ft | 456 kts | 341° |
| 2026-05-07 16:51 | -19.00310 | -55.11545 | 30641 ft | 458 kts | 341° |
| 2026-05-07 16:51 | -18.98226 | -55.12143 | 30788 ft | 460 kts | 341° |
| 2026-05-07 16:51 | -18.94119 | -55.13320 | 31066 ft | 463 kts | 341° |
| 2026-05-07 16:52 | -18.92059 | -55.13908 | 31221 ft | 464 kts | 341° |
| 2026-05-07 16:52 | -18.88940 | -55.14799 | 31551 ft | 463 kts | 341° |
| 2026-05-07 16:52 | -18.85834 | -55.15689 | 31824 ft | 463 kts | 341° |
| 2026-05-07 16:53 | -18.79713 | -55.17436 | 31890 ft | 444 kts | 340° |
| 2026-05-07 16:53 | -18.73800 | -55.19129 | 31883 ft | 438 kts | 340° |
| 2026-05-07 16:54 | -18.67908 | -55.20812 | 31893 ft | 439 kts | 341° |
| 2026-05-07 16:54 | -18.62012 | -55.22496 | 31892 ft | 439 kts | 341° |
| 2026-05-07 16:55 | -18.56112 | -55.24181 | 31890 ft | 439 kts | 341° |
| 2026-05-07 16:55 | -18.50216 | -55.25860 | 31888 ft | 439 kts | 341° |
| 2026-05-07 16:56 | -18.44324 | -55.27534 | 31888 ft | 438 kts | 340° |
| 2026-05-07 16:56 | -18.35470 | -55.30058 | 31892 ft | 446 kts | 341° |
| 2026-05-07 16:57 | -18.29356 | -55.31803 | 31891 ft | 463 kts | 341° |
| 2026-05-07 16:57 | -18.23067 | -55.33597 | 31890 ft | 477 kts | 341° |
| 2026-05-07 16:58 | -18.16595 | -55.35430 | 31886 ft | 485 kts | 341° |
| 2026-05-07 16:58 | -18.10057 | -55.37275 | 31893 ft | 486 kts | 341° |
| 2026-05-07 16:59 | -18.03532 | -55.39121 | 31890 ft | 486 kts | 341° |
| 2026-05-07 16:59 | -17.96989 | -55.40966 | 31889 ft | 486 kts | 341° |
| 2026-05-07 17:00 | -17.90442 | -55.42817 | 31881 ft | 486 kts | 341° |
| 2026-05-07 17:00 | -17.83908 | -55.44671 | 31881 ft | 487 kts | 341° |
| 2026-05-07 17:01 | -17.77388 | -55.46524 | 31883 ft | 487 kts | 341° |
| 2026-05-07 17:01 | -17.70810 | -55.48386 | 31877 ft | 487 kts | 341° |
| 2026-05-07 17:02 | -17.64254 | -55.50226 | 31874 ft | 488 kts | 341° |
| 2026-05-07 17:02 | -17.57703 | -55.52074 | 31879 ft | 488 kts | 341° |
| 2026-05-07 17:03 | -17.51177 | -55.53914 | 31885 ft | 488 kts | 341° |
| 2026-05-07 17:03 | -17.44620 | -55.55753 | 31890 ft | 482 kts | 341° |
| 2026-05-07 17:04 | -17.38201 | -55.57551 | 31887 ft | 481 kts | 342° |
| 2026-05-07 17:04 | -17.31727 | -55.59373 | 31891 ft | 481 kts | 341° |
| 2026-05-07 17:05 | -17.25255 | -55.61196 | 31890 ft | 481 kts | 342° |
| 2026-05-07 17:05 | -17.18780 | -55.63014 | 31716 ft | 482 kts | 342° |
| 2026-05-07 17:06 | -17.15542 | -55.63921 | 31474 ft | 481 kts | 342° |
| 2026-05-07 17:06 | -17.12304 | -55.64825 | 31225 ft | 482 kts | 342° |
| 2026-05-07 17:06 | -17.09063 | -55.65728 | 30996 ft | 483 kts | 342° |
| 2026-05-07 17:06 | -17.05843 | -55.66628 | 30770 ft | 483 kts | 342° |
| 2026-05-07 17:07 | -17.02585 | -55.67543 | 30533 ft | 483 kts | 342° |
| 2026-05-07 17:07 | -16.99370 | -55.68444 | 30316 ft | 469 kts | 342° |
| 2026-05-07 17:07 | -16.96299 | -55.69303 | 30014 ft | 446 kts | 342° |
| 2026-05-07 17:07 | -16.93342 | -55.70131 | 29278 ft | 434 kts | 342° |
| 2026-05-07 17:08 | -16.90476 | -55.70937 | 28959 ft | 414 kts | 342° |
| 2026-05-07 17:08 | -16.87727 | -55.71707 | 28958 ft | 406 kts | 342° |
| 2026-05-07 17:08 | -16.85020 | -55.72464 | 28447 ft | 402 kts | 342° |
| 2026-05-07 17:08 | -16.82295 | -55.73226 | 27126 ft | 408 kts | 343° |
| 2026-05-07 17:09 | -16.79492 | -55.74010 | 25395 ft | 425 kts | 343° |
| 2026-05-07 17:09 | -16.76587 | -55.74822 | 23705 ft | 440 kts | 345° |
| 2026-05-07 17:09 | -16.73673 | -55.75635 | 22619 ft | 434 kts | 345° |
| 2026-05-07 17:09 | -16.70742 | -55.76451 | 21189 ft | 431 kts | 345° |
| 2026-05-07 17:10 | -16.67843 | -55.77258 | 19511 ft | 442 kts | 345° |
| 2026-05-07 17:10 | -16.64869 | -55.78086 | 18743 ft | 427 kts | 345° |
| 2026-05-07 17:10 | -16.62127 | -55.78851 | 18530 ft | 399 kts | 345° |
| 2026-05-07 17:10 | -16.59486 | -55.79589 | 17841 ft | 388 kts | 345° |
| 2026-05-07 17:11 | -16.56913 | -55.80309 | 17090 ft | 379 kts | 345° |
| 2026-05-07 17:11 | -16.54394 | -55.81012 | 16474 ft | 368 kts | 345° |
| 2026-05-07 17:11 | -16.51970 | -55.81686 | 16004 ft | 355 kts | 344° |
| 2026-05-07 17:11 | -16.49622 | -55.82340 | 15521 ft | 343 kts | 344° |
| 2026-05-07 17:12 | -16.47352 | -55.82972 | 15057 ft | 334 kts | 344° |
| 2026-05-07 17:12 | -16.45138 | -55.83588 | 14598 ft | 325 kts | 344° |
| 2026-05-07 17:12 | -16.42975 | -55.84188 | 14145 ft | 319 kts | 343° |
| 2026-05-07 17:12 | -16.40846 | -55.84779 | 13695 ft | 315 kts | 343° |
| 2026-05-07 17:13 | -16.38745 | -55.85363 | 13238 ft | 310 kts | 343° |
| 2026-05-07 17:13 | -16.36711 | -55.85929 | 12991 ft | 295 kts | 344° |
| 2026-05-07 17:13 | -16.34768 | -55.86469 | 12739 ft | 282 kts | 344° |
| 2026-05-07 17:13 | -16.32918 | -55.86986 | 12484 ft | 270 kts | 345° |
| 2026-05-07 17:14 | -16.31115 | -55.87488 | 12243 ft | 267 kts | 345° |
| 2026-05-07 17:14 | -16.29345 | -55.87979 | 12003 ft | 260 kts | 345° |
| 2026-05-07 17:14 | -16.27636 | -55.88453 | 11770 ft | 249 kts | 345° |
| 2026-05-07 17:14 | -16.25997 | -55.88906 | 11530 ft | 238 kts | 345° |
| 2026-05-07 17:15 | -16.24444 | -55.89336 | 11417 ft | 223 kts | 346° |
| 2026-05-07 17:15 | -16.22985 | -55.89742 | 11221 ft | 213 kts | 346° |
| 2026-05-07 17:15 | -16.21556 | -55.90141 | 10887 ft | 211 kts | 347° |
| 2026-05-07 17:15 | -16.20164 | -55.90529 | 10633 ft | 203 kts | 347° |
| 2026-05-07 17:16 | -16.18827 | -55.90903 | 10332 ft | 195 kts | 347° |
| 2026-05-07 17:16 | -16.17573 | -55.91252 | 10061 ft | 176 kts | 347° |
| 2026-05-07 17:16 | -16.16438 | -55.91570 | 9836 ft | 162 kts | 348° |
| 2026-05-07 17:16 | -16.15388 | -55.91863 | 9623 ft | 150 kts | 348° |
| 2026-05-07 17:17 | -16.14409 | -55.92136 | 9325 ft | 146 kts | 347° |
| 2026-05-07 17:17 | -16.13404 | -55.92413 | 9026 ft | 150 kts | 348° |
| 2026-05-07 17:17 | -16.12223 | -55.92739 | 8690 ft | 212 kts | 347° |
| 2026-05-07 17:17 | -16.10778 | -55.93144 | 9741 ft | 192 kts | 347° |
| 2026-05-07 17:18 | -16.09417 | -55.93544 | 9246 ft | 228 kts | 347° |
| 2026-05-07 17:18 | -16.07785 | -55.93996 | 8480 ft | 246 kts | 347° |
| 2026-05-07 17:18 | -16.06147 | -55.94440 | 7861 ft | 247 kts | 347° |
| 2026-05-07 17:18 | -16.04469 | -55.94896 | 7417 ft | 255 kts | 347° |
| 2026-05-07 17:19 | -16.02738 | -55.95367 | 7011 ft | 258 kts | 347° |
| 2026-05-07 17:19 | -16.00994 | -55.95845 | 6628 ft | 257 kts | 346° |
| 2026-05-07 17:19 | -15.99256 | -55.96323 | 6223 ft | 258 kts | 346° |
| 2026-05-07 17:19 | -15.97547 | -55.96795 | 5833 ft | 256 kts | 346° |
| 2026-05-07 17:20 | -15.95823 | -55.97273 | 5435 ft | 255 kts | 346° |
| 2026-05-07 17:20 | -15.94104 | -55.97750 | 5050 ft | 256 kts | 346° |
| 2026-05-07 17:20 | -15.92370 | -55.98231 | 4649 ft | 256 kts | 347° |
| 2026-05-07 17:20 | -15.90660 | -55.98705 | 4389 ft | 250 kts | 346° |
| 2026-05-07 17:21 | -15.89011 | -55.99181 | 4326 ft | 246 kts | 343° |
| 2026-05-07 17:21 | -15.87461 | -55.99863 | 4268 ft | 233 kts | 335° |
| 2026-05-07 17:21 | -15.86077 | -56.00599 | 4199 ft | 221 kts | 334° |
| 2026-05-07 17:21 | -15.84726 | -56.01325 | 4131 ft | 214 kts | 334° |
| 2026-05-07 17:22 | -15.83419 | -56.02023 | 4054 ft | 207 kts | 334° |
| 2026-05-07 17:22 | -15.82177 | -56.02685 | 3902 ft | 192 kts | 335° |
| 2026-05-07 17:22 | -15.81046 | -56.03288 | 3689 ft | 172 kts | 335° |
| 2026-05-07 17:22 | -15.80055 | -56.03817 | 3489 ft | 152 kts | 335° |
| 2026-05-07 17:23 | -15.79144 | -56.04301 | 3307 ft | 144 kts | 336° |
| 2026-05-07 17:23 | -15.78263 | -56.04769 | 3130 ft | 143 kts | 335° |
| 2026-05-07 17:23 | -15.77390 | -56.05233 | 2944 ft | 141 kts | 336° |
| 2026-05-07 17:23 | -15.76523 | -56.05695 | 2779 ft | 139 kts | 336° |
| 2026-05-07 17:24 | -15.75660 | -56.06154 | 2602 ft | 140 kts | 336° |
| 2026-05-07 17:24 | -15.74800 | -56.06612 | 2424 ft | 139 kts | 336° |
| 2026-05-07 17:24 | -15.73936 | -56.07071 | 2249 ft | 139 kts | 335° |
| 2026-05-07 17:24 | -15.73076 | -56.07528 | 2064 ft | 138 kts | 335° |
| 2026-05-07 17:25 | -15.72226 | -56.07981 | 1891 ft | 138 kts | 334° |
| 2026-05-07 17:25 | -15.71372 | -56.08436 | 1709 ft | 138 kts | 335° |
| 2026-05-07 17:25 | -15.70523 | -56.08887 | 1539 ft | 136 kts | 336° |
| 2026-05-07 17:25 | -15.69685 | -56.09333 | 1385 ft | 136 kts | 335° |
| 2026-05-07 17:26 | -15.68842 | -56.09780 | 1196 ft | 138 kts | 333° |
| 2026-05-07 17:26 | -15.68007 | -56.10223 | 1035 ft | 136 kts | 332° |
| 2026-05-07 17:26 | -15.67150 | -56.10680 | 827 ft | 144 kts | 330° |
| 2026-05-07 17:26 | -15.66265 | -56.11152 | 689 ft | 139 kts | 333° |
| 2026-05-07 17:27 | -15.65460 | -56.11580 | 601 ft | 120 kts | 333° |
| 2026-05-07 17:27 | -15.65064 | -56.11804 | 598 ft | 7 kts | 289° |
| 2026-05-07 17:27 | -15.65069 | -56.11848 | 597 ft | 7 kts | 237° |
| 2026-05-07 17:27 | -15.65089 | -56.11886 | 597 ft | 5 kts | 246° |
| 2026-05-07 17:28 | -15.65078 | -56.11914 | 597 ft | 5 kts | 316° |
| 2026-05-07 17:28 | -15.65049 | -56.11930 | 597 ft | 5 kts | 331° |
| 2026-05-07 17:28 | -15.65027 | -56.11955 | 597 ft | 5 kts | 264° |
| 2026-05-07 17:28 | -15.65040 | -56.11977 | 597 ft | 3 kts | 243° |
| 2026-05-07 17:29 | -15.65045 | -56.11987 | 597 ft | 0 kts | 242° |